メインページ
METAR-TAF:

METAR-TAF

空港 :

バマコ, マリ共和国

バマコ・セヌー国際空港

緯度: 12-32N, 経度: 007-57W, 海抜: 380m

現時点の気象観測

当レポートは41分前の01:30(UTC)に作成
北東の風 10kt
気温 23°C
湿度 16%
気圧 1015 hPa
視程: 8000m

METAR: GABS 220130Z 05010KT 8000 NSC 23/M04 Q1015 NOSIG

時間: 02:11 (02:11 UTC)

予報

当レポートは3時間11分前の23:00(UTC)に作成
予報は22日の 00時(UTC)から 23日の 06時(UTC)まで有効
東/北東の風 7kt、最大17ktの突風を伴う
視程: 8000m
確率 40% :
22日の 06時(UTC)から 22日の 12時(UTC)まで一時的に
視程: 2000m
広範な塵

TAF: GABS 212300Z 2200/2306 06007G17KT 8000 NSC PROB40 TEMPO 2206/2212 2000 DU

4,000以上の空港の気象観測と天気予報(METAR報とTAF報)

利用可能な観測所は地図上に黄色い丸と赤い丸で示す。

丸の上にカーソルを重ねると観測所名を参照できる。

次にクリックすると気象観測と天気予報を参照できる。

マップの切り替え:黒色「×」印の緑ボタンをクリックして拡大、「-」印の緑ボタンをクリックして縮小、緑色の三角印をクリックして隣りの地図に切り替え


METAR-TAF: